Terminal Aerodrome Forecast
Issued by NWS Quad Cities IA IL

Home | Current Version | Previous Version | Text Only | Print | Product List | Glossary On
Versions: 1 2 3 4 5 6 7 8 9 10 11 12 13 14 15 16 17 18 19 20 21 22 23 24 25 26 27 28 29
000
FTUS43 KDVN 211700
TAFDBQ
TAF
KDBQ 211732Z 2118/2218 18014KT 5SM -DZ BR BKN010 OVC025
     FM212300 16013KT 3SM -DZ BR OVC007
     FM220700 15013KT 3SM -RADZ BR OVC004
     FM221500 13012KT 2SM -RASN BR OVC004=

USA.gov is the U.S. government's official web portal to all federal, state and local government web resources and services.